Time;durP1;ratioP1;P1;durP2;ratioP2;P2;SDS_P1;SDS_P2;PMS_P1;PMS_P2;Temp;Humidity;BMP_temperature;BMP_pressure;BME280_temperature;BME280_humidity;BME280_pressure;Samples;Min_cycle;Max_cycle;Signal;HPM_P1;HPM_P2
2021/11/20 00:00:36;;;;;;;17.40;15.27;;;6.30;99.90;;;;;;4971372;28;20216;-75
2021/11/20 00:03:04;;;;;;;15.70;12.73;;;6.20;99.90;;;;;;4971351;28;20776;-75
2021/11/20 00:05:34;;;;;;;18.60;13.87;;;6.20;99.90;;;;;;4971181;28;20268;-73
2021/11/20 00:08:01;;;;;;;18.47;13.57;;;6.20;99.90;;;;;;4971403;28;20209;-74
2021/11/20 00:10:32;;;;;;;14.37;12.73;;;6.20;99.90;;;;;;4971326;28;20569;-73
2021/11/20 00:12:59;;;;;;;16.40;14.30;;;6.20;99.90;;;;;;4971575;28;20214;-73
2021/11/20 00:15:29;;;;;;;19.90;13.90;;;6.10;99.90;;;;;;4971222;28;20205;-73
2021/11/20 00:17:58;;;;;;;15.83;12.87;;;6.10;99.90;;;;;;4971657;28;20210;-72
2021/11/20 00:20:28;;;;;;;16.53;12.70;;;6.00;99.90;;;;;;4970966;28;20662;-72
2021/11/20 00:22:56;;;;;;;17.93;12.73;;;6.10;99.90;;;;;;4971702;28;20312;-72
2021/11/20 00:25:36;;;;;;;16.63;14.90;;;6.20;99.90;;;;;;4970737;28;20262;-72
2021/11/20 00:28:03;;;;;;;18.87;14.10;;;6.10;99.90;;;;;;4971431;28;20292;-72
2021/11/20 00:30:41;;;;;;;16.33;12.70;;;6.10;99.90;;;;;;4970963;28;20268;-72
2021/11/20 00:33:11;;;;;;;14.53;13.03;;;6.10;99.90;;;;;;4971846;28;20227;-72
2021/11/20 00:35:44;;;;;;;17.40;12.87;;;6.00;99.90;;;;;;4972035;28;20269;-72
2021/11/20 00:38:13;;;;;;;16.47;12.63;;;5.90;99.90;;;;;;4971579;28;20206;-75
2021/11/20 00:40:46;;;;;;;18.83;15.33;;;5.90;99.90;;;;;;4971945;28;20257;-74
2021/11/20 00:43:15;;;;;;;21.00;16.03;;;5.90;99.90;;;;;;4974420;28;20229;-73
2021/11/20 00:45:43;;;;;;;17.83;14.23;;;5.90;99.90;;;;;;4975195;28;20214;-73
2021/11/20 00:48:13;;;;;;;20.87;14.13;;;5.90;99.90;;;;;;4974916;28;20213;-75
2021/11/20 00:50:42;;;;;;;14.90;12.00;;;6.00;99.90;;;;;;4975601;28;20209;-75
2021/11/20 00:53:10;;;;;;;15.33;11.40;;;6.10;99.90;;;;;;4974821;28;20214;-74
2021/11/20 00:55:37;;;;;;;18.37;12.67;;;6.10;99.90;;;;;;4975082;28;20682;-76
2021/11/20 00:58:05;;;;;;;13.80;12.37;;;6.20;99.90;;;;;;4974749;28;20216;-76
2021/11/20 01:00:36;;;;;;;15.90;13.50;;;6.30;99.90;;;;;;4974833;28;20288;-76
2021/11/20 01:03:04;;;;;;;15.43;12.23;;;6.20;99.90;;;;;;4974552;28;20276;-75
2021/11/20 01:05:33;;;;;;;13.10;10.63;;;6.20;99.90;;;;;;4974295;28;20209;-74
2021/11/20 01:08:00;;;;;;;14.27;11.43;;;6.20;99.90;;;;;;4974389;28;20217;-74
2021/11/20 01:10:31;;;;;;;13.77;10.80;;;6.30;99.90;;;;;;4974116;28;20610;-75
2021/11/20 01:12:59;;;;;;;18.80;12.03;;;6.30;99.90;;;;;;4974583;28;20271;-74
2021/11/20 01:15:32;;;;;;;15.33;10.80;;;6.20;99.90;;;;;;4973799;28;20625;-74
2021/11/20 01:18:00;;;;;;;17.17;11.70;;;6.30;99.90;;;;;;4974471;28;20209;-74
2021/11/20 01:20:27;;;;;;;14.70;10.07;;;6.30;99.90;;;;;;4974056;28;20208;-73
2021/11/20 01:22:55;;;;;;;13.67;11.50;;;6.30;99.90;;;;;;4974408;28;20237;-73
2021/11/20 01:25:22;;;;;;;14.00;10.63;;;6.40;99.90;;;;;;4973345;28;20627;-74
2021/11/20 01:27:49;;;;;;;15.13;11.60;;;6.30;99.90;;;;;;4974539;28;20261;-73
2021/11/20 01:30:17;;;;;;;12.33;10.37;;;6.30;99.90;;;;;;4973844;28;20268;-73
2021/11/20 01:32:44;;;;;;;12.13;9.30;;;6.20;99.90;;;;;;4973907;28;20638;-73
2021/11/20 01:35:12;;;;;;;12.80;10.57;;;6.20;99.90;;;;;;4974091;28;20640;-72
2021/11/20 01:37:42;;;;;;;13.87;11.30;;;6.20;99.90;;;;;;4974451;28;20241;-73
2021/11/20 01:40:14;;;;;;;13.33;11.10;;;6.20;99.90;;;;;;4974335;28;20206;-73
2021/11/20 01:42:41;;;;;;;13.57;9.90;;;6.30;99.90;;;;;;4973951;28;20209;-72
2021/11/20 01:45:12;;;;;;;14.27;10.43;;;6.30;99.90;;;;;;4974341;28;20256;-73
2021/11/20 01:47:44;;;;;;;12.03;9.87;;;6.30;99.90;;;;;;4973888;28;20736;-73
2021/11/20 01:50:15;;;;;;;11.90;9.57;;;6.20;99.90;;;;;;4973665;28;20220;-72
2021/11/20 01:52:53;;;;;;;17.07;11.47;;;6.20;99.90;;;;;;4973498;28;20261;-71
2021/11/20 01:55:33;;;;;;;13.57;11.00;;;6.20;99.90;;;;;;4973355;28;20288;-72
2021/11/20 01:58:04;;;;;;;14.37;10.57;;;6.20;99.90;;;;;;4973598;28;20697;-71
2021/11/20 02:00:36;;;;;;;18.17;11.53;;;6.10;99.90;;;;;;4973160;28;20699;-71
2021/11/20 02:03:13;;;;;;;18.53;10.93;;;6.20;99.90;;;;;;4973601;28;20221;-71
2021/11/20 02:05:52;;;;;;;15.83;11.17;;;6.10;99.90;;;;;;4973903;28;20643;-71
2021/11/20 02:08:26;;;;;;;12.23;10.60;;;6.10;99.90;;;;;;4973099;28;20369;-72
2021/11/20 02:10:58;;;;;;;13.47;10.40;;;6.10;99.90;;;;;;4973188;28;20213;-72
2021/11/20 02:13:28;;;;;;;17.13;11.77;;;6.10;99.90;;;;;;4973122;28;20217;-73
2021/11/20 02:15:59;;;;;;;11.97;10.63;;;6.10;99.90;;;;;;4973532;28;20213;-73
2021/11/20 02:18:30;;;;;;;13.77;10.07;;;6.10;99.90;;;;;;4972954;28;20259;-73
2021/11/20 02:21:04;;;;;;;14.93;10.90;;;6.10;99.90;;;;;;4973201;28;20659;-72
2021/11/20 02:23:31;;;;;;;13.23;11.67;;;6.00;99.90;;;;;;4972591;28;20240;-71
2021/11/20 02:25:59;;;;;;;13.00;10.27;;;6.00;99.90;;;;;;4973277;28;20213;-71
2021/11/20 02:28:27;;;;;;;13.93;11.77;;;5.90;99.90;;;;;;4972796;28;20214;-71
2021/11/20 02:30:58;;;;;;;11.77;9.87;;;5.90;99.90;;;;;;4973039;28;20210;-70
2021/11/20 02:33:28;;;;;;;13.77;11.23;;;5.90;99.90;;;;;;4972749;28;20214;-71
2021/11/20 02:35:57;;;;;;;12.30;11.10;;;5.90;99.90;;;;;;4972944;28;20213;-71
2021/11/20 02:38:27;;;;;;;12.40;10.17;;;5.80;99.90;;;;;;4972858;28;20268;-71
2021/11/20 02:40:57;;;;;;;13.07;10.50;;;5.80;99.90;;;;;;4972945;28;20333;-71
2021/11/20 02:43:26;;;;;;;12.33;10.20;;;5.70;99.90;;;;;;4972400;28;20592;-71
2021/11/20 02:45:56;;;;;;;11.97;10.70;;;5.70;99.90;;;;;;4972849;28;20268;-71
2021/11/20 02:48:25;;;;;;;13.43;10.70;;;5.70;99.90;;;;;;4972209;28;20310;-71
2021/11/20 02:50:57;;;;;;;14.20;10.33;;;5.60;99.90;;;;;;4972769;28;20685;-72
2021/11/20 02:53:30;;;;;;;14.17;9.87;;;5.60;99.90;;;;;;4972304;28;20291;-72
2021/11/20 02:55:57;;;;;;;12.87;10.70;;;5.60;99.90;;;;;;4972489;28;20201;-73
2021/11/20 02:58:26;;;;;;;18.53;12.60;;;5.60;99.90;;;;;;4971869;28;20210;-73
2021/11/20 03:00:56;;;;;;;20.00;12.97;;;5.60;99.90;;;;;;4972430;28;20209;-74
2021/11/20 03:03:25;;;;;;;13.40;10.80;;;5.60;99.90;;;;;;4971328;28;20217;-72
2021/11/20 03:05:52;;;;;;;18.57;12.73;;;5.60;99.90;;;;;;4972505;28;20276;-72
2021/11/20 03:08:19;;;;;;;15.00;13.40;;;5.50;99.90;;;;;;4971837;28;20209;-72
2021/11/20 03:10:46;;;;;;;23.20;15.70;;;5.50;99.90;;;;;;4972238;28;20673;-73
2021/11/20 03:13:14;;;;;;;19.23;14.30;;;5.50;99.90;;;;;;4971627;28;20572;-72
2021/11/20 03:15:41;;;;;;;22.50;15.47;;;5.40;99.90;;;;;;4972422;28;20256;-74
2021/11/20 03:18:08;;;;;;;20.80;16.10;;;5.30;99.90;;;;;;4972624;28;20673;-74
2021/11/20 03:20:37;;;;;;;19.43;15.10;;;5.30;99.90;;;;;;4971874;28;20206;-75
2021/11/20 03:23:14;;;;;;;21.57;16.50;;;5.00;99.90;;;;;;4971968;28;20217;-74
2021/11/20 03:25:41;;;;;;;22.37;16.47;;;5.00;99.90;;;;;;4972011;28;20264;-72
2021/11/20 03:28:08;;;;;;;22.77;16.10;;;5.00;99.90;;;;;;4972465;28;20209;-72
2021/11/20 03:30:35;;;;;;;21.93;17.50;;;5.00;99.90;;;;;;4971827;28;20205;-71
2021/11/20 03:33:03;;;;;;;21.37;17.60;;;5.00;99.90;;;;;;4972012;28;20634;-74
2021/11/20 03:35:31;;;;;;;23.90;17.97;;;4.90;99.90;;;;;;4971887;28;20209;-74
2021/11/20 03:38:03;;;;;;;21.77;17.67;;;4.80;99.90;;;;;;4971583;28;20740;-74
2021/11/20 03:40:31;;;;;;;22.37;17.73;;;4.80;99.90;;;;;;4971487;28;20690;-73
2021/11/20 03:42:58;;;;;;;20.97;17.57;;;4.80;99.90;;;;;;4985535;28;20205;-73
2021/11/20 03:45:27;;;;;;;23.60;18.50;;;4.80;99.90;;;;;;4971779;28;20241;-76
2021/11/20 03:47:54;;;;;;;22.07;18.47;;;4.60;99.90;;;;;;4971270;28;20276;-75
2021/11/20 03:50:21;;;;;;;20.07;17.70;;;4.40;99.90;;;;;;4970427;28;20287;-73
2021/11/20 03:52:48;;;;;;;23.90;17.80;;;4.40;99.90;;;;;;4969204;28;20252;-73
2021/11/20 03:55:20;;;;;;;19.30;16.27;;;4.40;99.90;;;;;;4970197;28;20257;-74
2021/11/20 03:57:47;;;;;;;20.33;16.00;;;4.50;99.90;;;;;;4971163;28;20272;-74
2021/11/20 04:00:17;;;;;;;21.20;17.37;;;4.60;99.90;;;;;;4970489;28;20205;-73
2021/11/20 04:02:46;;;;;;;21.60;16.80;;;4.60;99.90;;;;;;4970974;28;20266;-75
2021/11/20 04:05:13;;;;;;;20.43;16.67;;;4.60;99.90;;;;;;4969797;28;20229;-73
2021/11/20 04:07:40;;;;;;;21.50;17.73;;;4.50;99.90;;;;;;4970787;28;20234;-72
2021/11/20 04:10:10;;;;;;;23.60;18.13;;;4.60;99.90;;;;;;4970698;28;20666;-73
2021/11/20 04:12:40;;;;;;;22.13;17.90;;;4.60;99.90;;;;;;4971171;28;20205;-73
2021/11/20 04:15:09;;;;;;;22.93;17.57;;;4.60;99.90;;;;;;4971021;28;20213;-73
2021/11/20 04:17:36;;;;;;;20.10;16.50;;;4.60;99.90;;;;;;4973789;28;20205;-73
2021/11/20 04:20:06;;;;;;;19.40;14.93;;;4.60;99.90;;;;;;4973932;28;20256;-73
2021/11/20 04:22:33;;;;;;;19.43;15.27;;;4.50;99.90;;;;;;4974347;28;20260;-73
2021/11/20 04:25:00;;;;;;;21.60;14.53;;;4.20;99.90;;;;;;4974263;28;20416;-73
2021/11/20 04:27:27;;;;;;;16.90;13.63;;;4.00;99.90;;;;;;4973455;28;20337;-72
2021/11/20 04:29:56;;;;;;;17.37;15.53;;;3.90;99.90;;;;;;4973949;28;20257;-73
2021/11/20 04:32:23;;;;;;;15.20;12.60;;;3.90;99.90;;;;;;4977349;28;20216;-73
2021/11/20 04:34:50;;;;;;;20.87;16.97;;;4.10;99.90;;;;;;4978573;28;20268;-72
2021/11/20 04:37:17;;;;;;;17.37;14.87;;;4.10;99.90;;;;;;4972347;28;20209;-73
2021/11/20 04:39:44;;;;;;;15.27;13.33;;;4.10;99.90;;;;;;4971905;28;20305;-73
2021/11/20 04:42:12;;;;;;;16.67;14.23;;;3.90;99.90;;;;;;4972149;28;20210;-72
2021/11/20 04:44:39;;;;;;;15.17;12.70;;;4.00;99.90;;;;;;4972540;28;20783;-73
2021/11/20 04:47:07;;;;;;;21.50;17.07;;;3.90;99.90;;;;;;4934543;28;1149494;-73
2021/11/20 04:49:35;;;;;;;15.90;12.27;;;4.00;99.90;;;;;;4974443;28;20206;-73
2021/11/20 04:52:02;;;;;;;13.60;11.57;;;3.80;99.90;;;;;;4975119;28;20233;-73
2021/11/20 04:54:29;;;;;;;15.77;11.90;;;3.80;99.90;;;;;;4974422;28;20202;-73
2021/11/20 04:56:56;;;;;;;16.43;12.73;;;3.90;99.90;;;;;;4974946;28;20213;-72
2021/11/20 04:59:24;;;;;;;15.93;11.50;;;4.00;99.90;;;;;;4974116;28;20264;-73
2021/11/20 05:01:51;;;;;;;19.30;13.23;;;4.00;99.90;;;;;;4974767;28;20213;-73
2021/11/20 05:04:19;;;;;;;16.60;13.57;;;4.00;99.90;;;;;;4974198;28;20292;-72
2021/11/20 05:06:46;;;;;;;16.57;11.97;;;4.10;99.90;;;;;;4974756;28;20261;-72
2021/11/20 05:09:13;;;;;;;17.50;12.90;;;4.10;99.90;;;;;;4974209;28;20217;-71
2021/11/20 05:11:40;;;;;;;18.00;13.40;;;4.00;99.90;;;;;;4974594;28;20272;-74
2021/11/20 05:14:07;;;;;;;11.27;10.10;;;3.80;99.90;;;;;;4974753;28;20669;-72
2021/11/20 05:16:37;;;;;;;14.87;12.77;;;3.70;99.90;;;;;;4974073;28;20213;-73
2021/11/20 05:19:04;;;;;;;14.63;12.13;;;3.70;99.90;;;;;;4974374;28;20252;-73
2021/11/20 05:21:33;;;;;;;12.70;10.83;;;3.70;99.90;;;;;;4973985;28;20256;-72
2021/11/20 05:24:01;;;;;;;12.37;11.07;;;3.80;99.90;;;;;;4974342;28;20704;-73
2021/11/20 05:26:28;;;;;;;12.80;11.13;;;3.80;99.90;;;;;;4973536;28;20205;-72
2021/11/20 05:29:01;;;;;;;13.67;11.90;;;3.80;99.90;;;;;;4974288;28;20210;-73
2021/11/20 05:31:29;;;;;;;12.93;11.60;;;3.80;99.90;;;;;;4973703;28;20206;-74
2021/11/20 05:33:56;;;;;;;14.60;11.33;;;3.80;99.90;;;;;;4974090;28;20217;-74
2021/11/20 05:36:26;;;;;;;14.07;11.47;;;3.80;99.90;;;;;;4973833;28;20214;-74
2021/11/20 05:38:55;;;;;;;12.37;10.97;;;3.70;99.90;;;;;;4973317;28;20260;-73
2021/11/20 05:41:22;;;;;;;16.67;11.03;;;3.80;99.90;;;;;;4974620;28;20209;-72
2021/11/20 05:43:49;;;;;;;14.17;11.87;;;3.80;99.90;;;;;;4981399;28;20265;-73
2021/11/20 05:46:20;;;;;;;13.33;10.23;;;3.80;99.90;;;;;;4973349;28;20206;-74
2021/11/20 05:48:47;;;;;;;12.80;10.67;;;3.70;99.90;;;;;;4975673;28;20221;-72
2021/11/20 05:51:15;;;;;;;10.50;9.40;;;3.40;99.90;;;;;;4973379;28;20237;-73
2021/11/20 05:53:42;;;;;;;13.20;10.53;;;3.40;99.90;;;;;;4973361;28;20205;-73
2021/11/20 05:56:11;;;;;;;11.97;9.70;;;3.40;99.90;;;;;;4973996;28;20206;-73
2021/11/20 05:58:38;;;;;;;10.67;9.13;;;3.50;99.90;;;;;;4974013;28;20629;-74
2021/11/20 06:01:11;;;;;;;10.77;9.33;;;3.50;99.90;;;;;;4973233;28;20268;-73
2021/11/20 06:03:39;;;;;;;12.07;9.13;;;3.40;99.90;;;;;;4974055;28;20206;-72
2021/11/20 06:06:06;;;;;;;11.07;8.97;;;3.40;99.90;;;;;;4972665;28;20705;-73
2021/11/20 06:08:33;;;;;;;11.27;9.43;;;3.40;99.90;;;;;;4972728;28;20245;-73
2021/11/20 06:11:03;;;;;;;11.57;8.50;;;3.40;99.90;;;;;;4973219;28;20205;-75
2021/11/20 06:13:31;;;;;;;14.57;9.37;;;3.40;99.90;;;;;;4973110;28;20209;-75
2021/11/20 06:15:59;;;;;;;9.77;8.67;;;3.20;99.90;;;;;;4973026;28;20273;-75
2021/11/20 06:18:26;;;;;;;11.83;9.67;;;3.10;99.90;;;;;;4972383;28;20260;-73
2021/11/20 06:20:55;;;;;;;12.23;10.17;;;3.20;99.90;;;;;;4973046;28;20271;-75
2021/11/20 06:23:23;;;;;;;12.63;9.27;;;3.30;99.90;;;;;;4972928;28;20206;-74
2021/11/20 06:25:51;;;;;;;13.03;10.93;;;3.40;99.90;;;;;;4972967;28;20241;-76
2021/11/20 06:28:17;;;;;;;12.50;9.63;;;3.40;99.90;;;;;;4971902;28;20661;-75
2021/11/20 06:30:46;;;;;;;14.20;11.00;;;3.20;99.90;;;;;;4973069;28;20214;-74
2021/11/20 06:33:13;;;;;;;11.27;9.47;;;3.20;99.90;;;;;;4972585;28;20212;-73
2021/11/20 06:35:40;;;;;;;13.03;10.03;;;3.00;99.90;;;;;;4963971;28;20256;-74
2021/11/20 06:38:07;;;;;;;13.53;10.67;;;3.00;99.90;;;;;;4972822;28;20263;-74
2021/11/20 06:40:37;;;;;;;12.87;10.00;;;2.90;99.90;;;;;;4971639;28;20210;-73
2021/11/20 06:43:06;;;;;;;11.73;9.37;;;3.00;99.90;;;;;;4972702;28;20269;-73
2021/11/20 06:45:35;;;;;;;12.17;10.87;;;3.00;99.90;;;;;;4971957;28;20288;-75
2021/11/20 06:48:05;;;;;;;14.73;11.07;;;3.10;99.90;;;;;;4972659;28;20217;-72
2021/11/20 06:50:35;;;;;;;11.13;9.93;;;3.10;99.90;;;;;;4971666;28;20662;-74
2021/11/20 06:53:02;;;;;;;12.70;10.20;;;3.20;99.90;;;;;;4972993;28;20292;-74
2021/11/20 06:55:31;;;;;;;13.53;9.77;;;3.30;99.90;;;;;;4971891;28;20257;-74
2021/11/20 06:58:09;;;;;;;12.03;9.50;;;3.20;99.90;;;;;;4972587;28;20704;-74
2021/11/20 07:00:39;;;;;;;11.37;9.43;;;3.30;99.90;;;;;;4972284;28;20213;-73
2021/11/20 07:03:12;;;;;;;10.87;8.90;;;3.30;99.90;;;;;;4972823;28;20209;-74
2021/11/20 07:05:42;;;;;;;12.70;10.23;;;3.30;99.90;;;;;;4972661;28;20225;-77
2021/11/20 07:08:13;;;;;;;14.00;9.93;;;3.30;99.90;;;;;;4972699;28;20677;-76
2021/11/20 07:10:42;;;;;;;10.90;9.07;;;3.30;99.90;;;;;;4969349;28;20206;-75
2021/11/20 07:13:09;;;;;;;15.50;10.77;;;3.30;99.90;;;;;;4968535;28;20217;-77
2021/11/20 07:15:37;;;;;;;12.33;9.80;;;3.30;99.90;;;;;;4971548;28;20229;-78
2021/11/20 07:18:04;;;;;;;12.67;9.77;;;3.30;99.90;;;;;;4972302;28;20217;-77
2021/11/20 07:20:35;;;;;;;12.77;10.47;;;3.20;99.90;;;;;;4971735;28;20205;-75
2021/11/20 07:23:02;;;;;;;13.93;10.47;;;3.30;99.90;;;;;;4971543;28;20206;-75
2021/11/20 07:25:31;;;;;;;11.87;9.47;;;3.40;99.90;;;;;;4971738;28;20276;-77
2021/11/20 07:27:59;;;;;;;10.93;9.13;;;3.30;99.90;;;;;;4972276;28;20209;-76
2021/11/20 07:30:29;;;;;;;11.63;9.47;;;3.50;99.90;;;;;;4971568;28;20209;-74
2021/11/20 07:32:57;;;;;;;10.37;9.37;;;3.60;99.90;;;;;;4971987;28;20681;-74
2021/11/20 07:35:27;;;;;;;10.43;9.33;;;3.70;99.90;;;;;;4971416;28;20622;-77
2021/11/20 07:37:56;;;;;;;9.97;8.97;;;3.80;99.90;;;;;;4972042;28;20220;-76
2021/11/20 07:40:25;;;;;;;9.83;8.77;;;3.80;99.90;;;;;;4971499;28;20267;-75
2021/11/20 07:42:52;;;;;;;13.10;9.27;;;3.80;99.90;;;;;;4971895;28;20239;-73
2021/11/20 07:45:19;;;;;;;10.53;8.30;;;3.80;99.90;;;;;;4971487;28;20299;-75
2021/11/20 07:47:46;;;;;;;9.10;8.10;;;3.90;99.90;;;;;;4971785;28;20222;-76
2021/11/20 07:50:16;;;;;;;9.53;8.10;;;4.00;99.90;;;;;;4971292;28;20260;-76
2021/11/20 07:52:43;;;;;;;9.63;8.63;;;4.10;99.90;;;;;;4970969;28;20206;-78
2021/11/20 07:55:13;;;;;;;12.60;8.87;;;4.20;99.90;;;;;;4970422;28;20210;-73
2021/11/20 07:57:41;;;;;;;11.10;9.70;;;4.40;99.90;;;;;;4970740;28;20269;-75
2021/11/20 08:00:10;;;;;;;9.50;8.23;;;4.40;99.90;;;;;;4970751;28;20563;-75
2021/11/20 08:02:37;;;;;;;10.97;9.07;;;4.50;99.90;;;;;;4970225;28;20210;-76
2021/11/20 08:05:05;;;;;;;9.97;8.97;;;4.60;99.90;;;;;;4968492;28;20249;-77
2021/11/20 08:07:35;;;;;;;11.13;9.97;;;4.60;99.90;;;;;;4969986;28;20272;-76
2021/11/20 08:10:02;;;;;;;11.00;8.37;;;4.60;99.90;;;;;;4969403;28;20213;-78
2021/11/20 08:12:30;;;;;;;9.90;8.67;;;4.70;99.90;;;;;;4970272;28;20202;-76
2021/11/20 08:14:57;;;;;;;9.87;8.80;;;4.70;99.90;;;;;;4970866;28;20205;-77
2021/11/20 08:17:24;;;;;;;11.50;9.47;;;4.90;99.90;;;;;;4970828;28;20213;-76
2021/11/20 08:19:53;;;;;;;13.33;8.97;;;4.90;99.90;;;;;;4969457;28;20210;-76
2021/11/20 08:22:20;;;;;;;10.17;8.70;;;5.00;99.90;;;;;;4969478;28;20202;-77
2021/11/20 08:24:47;;;;;;;12.27;8.90;;;5.20;99.90;;;;;;4971264;28;20205;-76
2021/11/20 08:27:14;;;;;;;10.13;8.60;;;5.20;99.90;;;;;;4969972;28;20210;-76
2021/11/20 08:29:43;;;;;;;10.17;8.33;;;5.10;99.90;;;;;;4971056;28;20273;-74
2021/11/20 08:32:11;;;;;;;11.80;8.53;;;5.30;99.90;;;;;;4971409;28;20213;-74
2021/11/20 08:34:40;;;;;;;9.63;8.07;;;5.50;99.90;;;;;;4971592;28;20209;-76
2021/11/20 08:37:08;;;;;;;11.73;9.70;;;5.80;99.90;;;;;;4969532;28;20205;-77
2021/11/20 08:39:35;;;;;;;9.87;8.60;;;5.90;99.90;;;;;;4970961;28;20256;-76
2021/11/20 08:42:03;;;;;;;13.80;9.53;;;5.90;99.90;;;;;;4970907;28;20213;-77
2021/11/20 08:44:31;;;;;;;10.80;8.63;;;6.00;99.90;;;;;;4970668;28;20652;-77
2021/11/20 08:46:59;;;;;;;11.50;8.03;;;6.00;99.90;;;;;;4970884;28;20237;-78
2021/11/20 08:49:26;;;;;;;12.20;8.80;;;6.00;99.90;;;;;;4970662;28;20621;-77
2021/11/20 08:51:53;;;;;;;11.93;9.00;;;6.50;99.90;;;;;;4970773;28;20736;-73
2021/11/20 08:54:21;;;;;;;9.67;8.37;;;7.10;99.90;;;;;;4970655;28;20351;-76
2021/11/20 08:56:49;;;;;;;10.27;8.03;;;6.90;99.90;;;;;;4969892;28;20268;-75
2021/11/20 08:59:20;;;;;;;12.30;9.00;;;6.60;99.90;;;;;;4969326;28;20209;-73
2021/11/20 09:01:49;;;;;;;11.07;8.17;;;7.40;99.90;;;;;;4970963;28;20212;-76
2021/11/20 09:04:22;;;;;;;11.33;9.67;;;7.60;99.90;;;;;;4973255;28;20213;-74
2021/11/20 09:06:52;;;;;;;12.40;9.80;;;7.60;99.90;;;;;;4970280;28;20225;-76
2021/11/20 09:09:24;;;;;;;11.67;9.23;;;7.60;99.90;;;;;;4973207;28;20206;-77
2021/11/20 09:11:54;;;;;;;10.13;9.00;;;8.10;99.90;;;;;;4974115;28;20685;-77
2021/11/20 09:14:27;;;;;;;10.00;9.00;;;8.30;99.90;;;;;;4974017;28;20264;-76
2021/11/20 09:16:58;;;;;;;12.27;9.97;;;9.40;99.90;;;;;;4973948;28;20789;-76
2021/11/20 09:19:26;;;;;;;11.47;9.77;;;8.50;99.90;;;;;;4974192;28;20598;-78
2021/11/20 09:21:54;;;;;;;10.70;9.60;;;8.10;99.90;;;;;;4974988;28;20629;-81
2021/11/20 09:24:21;;;;;;;11.17;9.93;;;8.40;99.90;;;;;;4975906;28;20644;-78
2021/11/20 09:26:48;;;;;;;12.03;9.93;;;8.30;99.90;;;;;;4974051;28;20233;-77
2021/11/20 09:29:17;;;;;;;11.43;9.47;;;8.20;99.90;;;;;;4974016;28;20277;-78
2021/11/20 09:31:46;;;;;;;12.00;10.03;;;8.30;99.90;;;;;;4974487;28;20213;-78
2021/11/20 09:34:16;;;;;;;11.13;9.60;;;8.40;99.90;;;;;;4974515;28;20209;-72
2021/11/20 09:36:46;;;;;;;12.53;10.20;;;8.70;99.90;;;;;;4972329;28;20212;-75
2021/11/20 09:39:17;;;;;;;13.37;9.20;;;8.80;99.90;;;;;;4968422;28;20206;-78
2021/11/20 09:42:01;;;;;;;12.07;9.77;;;9.80;99.90;;;;;;4967906;28;20362;-72
2021/11/20 09:44:32;;;;;;;10.60;9.50;;;9.80;99.90;;;;;;4962106;28;20256;-70
2021/11/20 09:47:07;;;;;;;11.63;9.90;;;9.60;99.90;;;;;;4968732;28;20297;-77
2021/11/20 09:49:38;;;;;;;12.20;9.80;;;10.40;99.90;;;;;;4973459;28;20204;-75
2021/11/20 09:52:08;;;;;;;14.90;11.40;;;10.10;99.90;;;;;;4974066;28;20227;-72
2021/11/20 09:54:39;;;;;;;12.63;10.10;;;9.80;99.90;;;;;;4973238;28;20794;-76
2021/11/20 09:57:19;;;;;;;11.57;10.33;;;9.70;99.90;;;;;;4967905;28;20209;-75
2021/11/20 09:59:50;;;;;;;13.03;10.10;;;9.70;99.90;;;;;;4976570;28;20677;-78
2021/11/20 10:02:20;;;;;;;10.70;9.60;;;9.60;99.90;;;;;;4972755;28;20296;-76
2021/11/20 10:04:53;;;;;;;16.20;10.37;;;10.70;99.90;;;;;;4965679;28;20210;-74
2021/11/20 10:07:28;;;;;;;14.17;11.23;;;10.40;99.90;;;;;;4980348;28;20708;-75
2021/11/20 10:09:58;;;;;;;13.60;10.70;;;10.60;99.90;;;;;;4980128;28;20202;-73
2021/11/20 10:12:31;;;;;;;12.17;10.93;;;10.60;99.90;;;;;;4972800;28;20205;-73
2021/11/20 10:15:05;;;;;;;11.93;10.73;;;10.30;99.90;;;;;;4970492;28;20202;-75
2021/11/20 10:17:43;;;;;;;12.30;10.97;;;10.20;99.90;;;;;;4966431;28;20276;-75
2021/11/20 10:20:31;;;;;;;10.67;9.53;;;10.20;99.90;;;;;;4971520;28;20623;-70
2021/11/20 10:23:05;;;;;;;14.23;10.57;;;10.30;99.90;;;;;;4972951;28;20210;-75
2021/11/20 10:26:07;;;;;;;11.00;9.90;;;10.10;99.90;;;;;;4962514;28;20730;-75
2021/11/20 10:28:42;;;;;;;13.83;11.77;;;10.10;99.90;;;;;;4970045;28;20205;-74
2021/11/20 10:31:14;;;;;;;13.57;10.93;;;10.20;99.90;;;;;;4973389;28;20617;-75
2021/11/20 10:33:44;;;;;;;13.47;11.97;;;10.20;99.90;;;;;;4971833;28;20284;-73
2021/11/20 10:36:14;;;;;;;14.07;11.17;;;10.20;99.90;;;;;;4972585;28;20205;-75
2021/11/20 10:38:57;;;;;;;12.67;11.33;;;10.30;99.90;;;;;;4972379;28;20209;-75
2021/11/20 10:41:41;;;;;;;13.80;10.70;;;10.40;99.90;;;;;;4972031;28;20209;-74
2021/11/20 10:44:13;;;;;;;13.27;11.40;;;10.50;99.90;;;;;;4972909;28;20647;-75
2021/11/20 10:46:53;;;;;;;16.63;11.33;;;10.50;99.90;;;;;;4973004;28;20237;-74
2021/11/20 10:49:37;;;;;;;14.60;11.10;;;10.70;99.90;;;;;;4962298;28;20209;-74
2021/11/20 10:52:08;;;;;;;13.10;11.37;;;10.70;99.90;;;;;;4972032;28;20260;-74
2021/11/20 10:55:04;;;;;;;12.83;11.33;;;10.70;99.90;;;;;;4972130;28;20670;-75
2021/11/20 10:57:58;;;;;;;15.10;11.90;;;10.80;99.90;;;;;;4972048;28;20206;-74
2021/11/20 11:00:37;;;;;;;16.17;14.00;;;10.80;99.90;;;;;;4971364;28;20261;-74
2021/11/20 11:03:28;;;;;;;16.77;13.50;;;10.80;99.90;;;;;;4972194;28;20209;-75
2021/11/20 11:06:35;;;;;;;16.53;13.40;;;10.80;99.90;;;;;;4972217;28;20229;-75
2021/11/20 11:09:10;;;;;;;13.40;11.83;;;10.90;99.90;;;;;;4943878;28;20620;-76
2021/11/20 11:11:42;;;;;;;14.43;12.80;;;10.90;99.90;;;;;;4972574;28;20271;-74
2021/11/20 11:14:19;;;;;;;18.70;15.10;;;11.00;99.90;;;;;;4972832;28;20288;-74
2021/11/20 11:16:49;;;;;;;18.73;15.40;;;11.00;99.90;;;;;;4971969;28;20799;-75
2021/11/20 11:19:28;;;;;;;17.57;15.50;;;11.10;99.90;;;;;;4972073;28;20213;-75
2021/11/20 11:21:59;;;;;;;17.60;14.77;;;11.30;99.90;;;;;;4971908;28;20209;-74
2021/11/20 11:24:45;;;;;;;20.03;15.77;;;11.50;99.90;;;;;;4971502;28;20220;-75
2021/11/20 11:27:17;;;;;;;18.87;15.20;;;11.70;99.90;;;;;;4971905;28;20292;-71
2021/11/20 11:30:10;;;;;;;16.67;14.50;;;11.90;99.90;;;;;;4971969;28;20205;-73
2021/11/20 11:32:41;;;;;;;16.33;13.83;;;12.10;99.90;;;;;;4968817;28;20686;-75
2021/11/20 11:35:14;;;;;;;16.53;14.07;;;12.40;99.90;;;;;;4971886;28;20296;-75
2021/11/20 11:37:54;;;;;;;20.67;14.43;;;12.50;99.90;;;;;;4980460;28;20213;-74
2021/11/20 11:40:31;;;;;;;18.40;14.37;;;12.70;99.90;;;;;;4974972;28;20256;-75
2021/11/20 11:43:13;;;;;;;28.67;16.87;;;12.80;99.90;;;;;;4971896;28;20220;-74
2021/11/20 11:46:09;;;;;;;16.40;13.40;;;12.80;99.90;;;;;;4971960;28;20242;-74
2021/11/20 11:49:03;;;;;;;15.70;14.03;;;12.90;99.90;;;;;;4971385;28;20673;-74
2021/11/20 11:51:55;;;;;;;19.53;14.77;;;12.70;99.90;;;;;;4943098;28;20228;-75
2021/11/20 11:54:34;;;;;;;16.27;13.20;;;12.70;99.90;;;;;;4970214;28;20704;-75
2021/11/20 11:57:20;;;;;;;17.30;12.37;;;12.80;99.90;;;;;;4968095;28;20209;-70
2021/11/20 12:00:01;;;;;;;15.23;12.53;;;12.80;99.90;;;;;;4967087;28;20972;-80
2021/11/20 12:02:43;;;;;;;17.20;14.63;;;12.90;99.90;;;;;;4971755;28;20217;-78
2021/11/20 12:05:26;;;;;;;14.10;12.07;;;13.10;99.90;;;;;;4971379;28;20205;-75
2021/11/20 12:07:59;;;;;;;15.13;12.67;;;13.30;99.90;;;;;;4971290;28;20237;-80
2021/11/20 12:10:36;;;;;;;17.60;11.93;;;13.50;99.90;;;;;;4971308;28;20312;-76
2021/11/20 12:13:06;;;;;;;17.38;11.68;;;13.60;99.90;;;;;;4971377;28;20564;-81
2021/11/20 12:15:41;;;;;;;15.30;13.20;;;13.90;99.90;;;;;;4971455;28;20657;-81
2021/11/20 12:18:18;;;;;;;19.83;12.65;;;14.00;99.90;;;;;;4971629;28;20213;-78
2021/11/20 12:21:05;;;;;;;17.77;13.60;;;14.00;99.90;;;;;;4971221;28;20209;-79
2021/11/20 12:23:47;;;;;;;12.97;11.43;;;14.00;99.90;;;;;;4972896;28;20639;-82
2021/11/20 12:26:22;;;;;;;12.43;10.88;;;13.80;99.90;;;;;;4971349;28;20697;-84
2021/11/20 12:29:18;;;;;;;15.23;10.23;;;13.60;99.90;;;;;;4972077;28;20213;-81
2021/11/20 12:32:05;;;;;;;12.57;9.13;;;13.50;99.90;;;;;;4968533;28;20222;-81
2021/11/20 12:34:52;;;;;;;12.20;9.63;;;13.70;99.90;;;;;;4971212;28;20217;-77
2021/11/20 12:37:42;;;;;;;10.65;7.82;;;13.70;99.90;;;;;;4973237;28;20276;-80
2021/11/20 12:40:47;;;;;;;9.30;8.40;;;13.80;99.90;;;;;;4970786;28;20209;-77
2021/11/20 12:43:54;;;;;;;7.55;6.57;;;13.90;99.90;;;;;;4975451;28;20260;-78
2021/11/20 12:46:48;;;;;;;9.40;6.20;;;13.90;99.90;;;;;;4973921;28;20236;-80
2021/11/20 12:49:30;;;;;;;8.32;7.38;;;14.00;99.90;;;;;;4976463;28;20211;-78
2021/11/20 12:52:18;;;;;;;7.18;6.15;;;14.10;99.90;;;;;;4976092;28;20631;-83
2021/11/20 12:54:59;;;;;;;4.78;4.00;;;14.40;99.90;;;;;;4973836;28;20228;-85
2021/11/20 12:57:41;;;;;;;5.18;4.07;;;14.60;99.90;;;;;;4974779;28;20209;-78
2021/11/20 13:00:16;;;;;;;3.97;2.95;;;14.70;99.90;;;;;;4972943;28;20228;-83